createdAt,value
2018-02-21T00:00:39.416Z,1.77
2018-02-21T00:03:08.492Z,1.63
2018-02-21T00:05:36.752Z,1.60
2018-02-21T00:08:05.046Z,1.45
2018-02-21T00:10:36.035Z,1.37
2018-02-21T00:13:04.315Z,1.18
2018-02-21T00:15:32.589Z,1.28
2018-02-21T00:18:00.863Z,1.27
2018-02-21T00:20:29.136Z,1.27
2018-02-21T00:22:57.402Z,1.15
2018-02-21T00:25:25.672Z,1.25
2018-02-21T00:27:53.940Z,1.25
2018-02-21T00:30:22.964Z,1.24
2018-02-21T00:32:51.320Z,1.37
2018-02-21T00:35:19.615Z,1.27
2018-02-21T00:37:47.870Z,1.32
2018-02-21T00:40:16.174Z,1.35
2018-02-21T00:42:44.445Z,1.52
2018-02-21T00:45:12.724Z,1.28
2018-02-21T00:47:40.992Z,1.47
2018-02-21T00:50:09.249Z,1.35
2018-02-21T00:52:37.536Z,1.31
2018-02-21T00:55:05.800Z,1.49
2018-02-21T00:57:34.075Z,1.53
2018-02-21T01:00:03.112Z,1.72
2018-02-21T01:02:31.404Z,1.77
2018-02-21T01:04:59.707Z,1.84
2018-02-21T01:07:28.761Z,1.97
2018-02-21T01:09:57.060Z,1.96
2018-02-21T01:12:25.345Z,1.93
2018-02-21T01:14:53.639Z,1.83
2018-02-21T01:17:22.664Z,1.92
2018-02-21T01:19:50.935Z,1.94
2018-02-21T01:22:19.215Z,1.72
2018-02-21T01:24:47.476Z,1.62
2018-02-21T01:27:15.747Z,1.72
2018-02-21T01:29:44.012Z,1.50
2018-02-21T01:32:13.045Z,1.47
2018-02-21T01:34:41.333Z,1.39
2018-02-21T01:37:09.595Z,1.08
2018-02-21T01:39:37.856Z,1.16
2018-02-21T01:42:06.137Z,1.38
2018-02-21T01:44:34.399Z,1.16
2018-02-21T01:47:02.651Z,1.17
2018-02-21T01:49:31.695Z,1.41
2018-02-21T01:51:59.955Z,1.41
2018-02-21T01:54:28.253Z,1.54
2018-02-21T01:56:56.551Z,1.59
2018-02-21T01:59:24.864Z,1.78
2018-02-21T02:01:53.154Z,2.00
2018-02-21T02:04:21.417Z,2.05
2018-02-21T02:06:50.457Z,1.88
2018-02-21T02:09:18.740Z,1.96
2018-02-21T02:11:47.045Z,1.99
2018-02-21T02:14:15.317Z,2.07
2018-02-21T02:16:43.588Z,1.81
2018-02-21T02:19:11.856Z,1.96
2018-02-21T02:21:40.136Z,2.01
2018-02-21T02:24:08.442Z,2.12
2018-02-21T02:26:37.463Z,1.96
2018-02-21T02:29:05.725Z,1.68
2018-02-21T02:31:33.999Z,1.55
2018-02-21T02:34:02.260Z,1.73
2018-02-21T02:36:31.288Z,1.84
2018-02-21T02:39:17.361Z,1.84
2018-02-21T02:41:45.648Z,1.91
2018-02-21T02:44:13.905Z,1.61
2018-02-21T02:46:42.246Z,1.71
2018-02-21T02:49:10.513Z,1.70
2018-02-21T02:51:38.781Z,1.46
2018-02-21T02:54:07.067Z,1.66
2018-02-21T02:56:35.326Z,1.70
2018-02-21T02:59:03.628Z,1.59
2018-02-21T03:01:31.912Z,1.49
2018-02-21T03:04:00.199Z,1.51
2018-02-21T03:06:29.246Z,1.52
2018-02-21T03:08:57.528Z,1.49
2018-02-21T03:11:25.784Z,1.47
2018-02-21T03:13:54.060Z,1.37
2018-02-21T03:16:22.310Z,1.41
2018-02-21T03:18:50.586Z,1.33
2018-02-21T03:21:19.735Z,1.37
2018-02-21T03:23:48.001Z,1.22
2018-02-21T03:26:16.251Z,1.23
2018-02-21T03:28:44.556Z,1.29
2018-02-21T03:31:12.818Z,1.31
2018-02-21T03:33:41.079Z,0.99
2018-02-21T03:36:09.359Z,0.78
2018-02-21T03:38:37.615Z,0.74
2018-02-21T03:41:05.889Z,0.64
2018-02-21T03:43:34.947Z,0.40
2018-02-21T03:46:03.215Z,0.42
2018-02-21T03:48:31.495Z,0.14
2018-02-21T03:50:59.756Z,0.29
2018-02-21T03:53:28.032Z,0.10
2018-02-21T03:55:56.312Z,0.15
2018-02-21T03:58:24.571Z,0.04
2018-02-21T04:00:52.844Z,0.26
2018-02-21T04:03:21.138Z,0.24
2018-02-21T04:05:49.421Z,0.30
2018-02-21T04:08:17.679Z,0.29
2018-02-21T04:10:45.964Z,-0.15
2018-02-21T04:13:14.244Z,-0.27
2018-02-21T04:15:42.543Z,-0.14
2018-02-21T04:18:10.836Z,-0.19
2018-02-21T04:20:39.875Z,0.08
2018-02-21T04:23:08.189Z,0.19
2018-02-21T04:25:36.452Z,0.08
2018-02-21T04:28:04.742Z,0.00
2018-02-21T04:30:33.000Z,0.04
2018-02-21T04:33:01.309Z,0.15
2018-02-21T04:35:30.344Z,-0.01
2018-02-21T04:37:58.643Z,0.01
2018-02-21T04:40:26.932Z,-0.08
2018-02-21T04:42:55.201Z,-0.10
2018-02-21T04:45:23.472Z,-0.33
2018-02-21T04:47:51.752Z,-0.57
2018-02-21T04:50:20.028Z,-0.66
2018-02-21T04:52:48.340Z,-0.68
2018-02-21T05:01:32.701Z,-0.53
2018-02-21T05:04:00.970Z,-0.61
2018-02-21T05:06:29.252Z,-0.39
2018-02-21T05:08:57.536Z,-0.33
2018-02-21T05:11:25.890Z,-0.22
2018-02-21T05:13:54.178Z,-0.17
2018-02-21T05:16:22.448Z,-0.33
2018-02-21T05:18:50.757Z,-0.76
2018-02-21T05:21:19.832Z,-0.86
2018-02-21T05:23:48.117Z,-0.82
2018-02-21T05:26:16.443Z,-0.86
2018-02-21T05:28:44.721Z,-0.75
2018-02-21T05:31:12.992Z,-0.75
2018-02-21T05:33:41.258Z,-0.68
2018-02-21T05:36:09.540Z,-0.73
2018-02-21T05:38:37.816Z,-0.72
2018-02-21T05:41:06.113Z,-0.61
2018-02-21T05:43:34.400Z,-0.49
2018-02-21T05:46:02.676Z,-0.56
2018-02-21T05:48:30.949Z,-0.54
2018-02-21T05:50:59.236Z,-0.42
2018-02-21T05:53:27.507Z,-0.40
2018-02-21T05:55:55.784Z,-0.36
2018-02-21T05:58:24.064Z,-0.58
2018-02-21T06:00:52.341Z,-0.42
2018-02-21T06:03:20.619Z,-0.49
2018-02-21T06:05:48.907Z,-0.46
2018-02-21T06:08:17.167Z,-0.50
2018-02-21T06:10:45.447Z,-0.58
2018-02-21T06:13:13.788Z,-0.64
2018-02-21T06:15:42.065Z,-0.72
2018-02-21T06:18:10.337Z,-0.77
2018-02-21T06:20:38.630Z,-0.84
2018-02-21T06:23:06.896Z,-0.75
2018-02-21T06:25:35.235Z,-0.74
2018-02-21T06:28:04.269Z,-0.70
2018-02-21T06:30:32.540Z,-0.74
2018-02-21T06:33:00.820Z,-0.72
2018-02-21T06:35:29.087Z,-0.77
2018-02-21T06:37:57.364Z,-0.94
2018-02-21T06:40:25.649Z,-0.86
2018-02-21T06:42:53.917Z,-0.83
2018-02-21T06:45:22.189Z,-0.84
2018-02-21T06:47:50.492Z,-0.84
2018-02-21T06:50:18.763Z,-0.81
2018-02-21T06:52:47.051Z,-0.83
2018-02-21T06:55:15.400Z,-0.68
2018-02-21T06:57:43.668Z,-0.70
2018-02-21T07:00:12.050Z,-0.65
2018-02-21T07:02:40.270Z,-0.64
2018-02-21T07:05:08.540Z,-0.70
2018-02-21T07:07:36.825Z,-0.54
2018-02-21T07:10:05.118Z,-0.54
2018-02-21T07:12:34.169Z,-0.52
2018-02-21T07:15:02.434Z,-0.55
2018-02-21T07:17:30.712Z,-0.42
2018-02-21T07:19:59.001Z,-0.41
2018-02-21T07:22:27.281Z,-0.55
2018-02-21T07:24:55.569Z,-0.51
2018-02-21T07:27:23.848Z,-0.53
2018-02-21T07:29:52.883Z,-0.49
2018-02-21T07:32:21.177Z,-0.43
2018-02-21T07:34:49.447Z,-0.36
2018-02-21T07:37:17.753Z,-0.30
2018-02-21T07:39:46.053Z,-0.26
2018-02-21T07:42:14.315Z,-0.35
2018-02-21T07:44:42.613Z,-0.62
2018-02-21T07:47:11.665Z,-0.64
2018-02-21T07:49:39.929Z,-0.69
2018-02-21T07:52:08.218Z,-0.51
2018-02-21T07:54:36.505Z,-0.67
2018-02-21T07:57:04.807Z,-0.51
2018-02-21T07:59:33.120Z,-0.13
2018-02-21T08:02:01.384Z,0.07
2018-02-21T08:04:30.449Z,0.34
2018-02-21T08:06:58.707Z,0.41
2018-02-21T08:09:27.003Z,0.40
2018-02-21T08:11:55.281Z,0.58
2018-02-21T08:14:23.536Z,0.53
2018-02-21T08:16:52.011Z,0.52
2018-02-21T08:19:20.288Z,0.38
2018-02-21T08:21:48.561Z,0.26
2018-02-21T08:24:16.828Z,0.45
2018-02-21T08:26:45.126Z,0.61
2018-02-21T08:29:13.388Z,0.77
2018-02-21T08:31:41.664Z,0.75
2018-02-21T08:34:09.931Z,0.74
2018-02-21T08:36:38.221Z,0.83
2018-02-21T08:39:06.504Z,0.81
2018-02-21T08:41:34.767Z,1.04
2018-02-21T08:44:03.028Z,0.93
2018-02-21T08:46:31.300Z,1.15
2018-02-21T08:48:59.559Z,1.21
2018-02-21T08:51:27.839Z,1.25
2018-02-21T08:53:56.113Z,1.24
2018-02-21T08:56:24.428Z,1.19
2018-02-21T08:58:52.696Z,1.49
2018-02-21T09:01:20.961Z,1.50
2018-02-21T09:03:49.228Z,1.75
2018-02-21T09:06:17.494Z,1.78
2018-02-21T09:08:45.780Z,1.88
2018-02-21T09:11:14.041Z,2.09
2018-02-21T09:13:42.329Z,2.33
2018-02-21T09:16:10.600Z,2.41
2018-02-21T09:18:38.870Z,2.37
2018-02-21T09:21:07.158Z,2.47
2018-02-21T09:23:35.439Z,2.14
2018-02-21T09:26:03.708Z,2.35
2018-02-21T09:28:32.000Z,2.61
2018-02-21T09:31:00.252Z,2.70
2018-02-21T09:33:28.532Z,3.02
2018-02-21T09:35:56.828Z,3.06
2018-02-21T09:38:25.089Z,3.24
2018-02-21T09:40:53.352Z,3.19
2018-02-21T09:43:21.749Z,3.07
2018-02-21T09:45:50.012Z,3.18
2018-02-21T09:48:18.308Z,2.90
2018-02-21T09:50:46.563Z,2.87
2018-02-21T09:53:14.820Z,3.12
2018-02-21T09:55:43.851Z,3.00
2018-02-21T09:58:12.129Z,3.24
2018-02-21T10:00:40.403Z,3.12
2018-02-21T10:03:08.683Z,3.41
2018-02-21T10:05:36.953Z,3.57
2018-02-21T10:08:05.224Z,3.39
2018-02-21T10:10:33.508Z,3.58
2018-02-21T10:13:01.781Z,4.04
2018-02-21T10:15:30.045Z,3.84
2018-02-21T10:17:58.312Z,3.80
2018-02-21T10:20:26.585Z,3.84
2018-02-21T10:22:54.856Z,3.93
2018-02-21T10:25:23.923Z,4.28
2018-02-21T10:27:52.182Z,4.45
2018-02-21T10:30:20.432Z,4.48
2018-02-21T10:32:48.797Z,4.78
2018-02-21T10:35:17.056Z,4.86
2018-02-21T10:37:45.331Z,5.03
2018-02-21T10:40:14.403Z,5.05
2018-02-21T10:42:43.541Z,5.13
2018-02-21T10:45:11.792Z,5.26
2018-02-21T10:47:40.832Z,5.58
2018-02-21T10:50:09.101Z,5.28
2018-02-21T10:52:37.361Z,5.69
2018-02-21T10:55:05.648Z,5.90
2018-02-21T10:57:33.915Z,5.59
2018-02-21T11:00:02.159Z,5.30
2018-02-21T11:02:31.196Z,5.19
2018-02-21T11:04:59.473Z,5.46
2018-02-21T11:07:27.716Z,5.53
2018-02-21T11:09:55.996Z,5.65
2018-02-21T11:12:24.264Z,5.86
2018-02-21T11:14:53.310Z,6.06
2018-02-21T11:17:21.565Z,6.37
2018-02-21T11:19:49.819Z,5.64
2018-02-21T11:22:18.107Z,6.07
2018-02-21T11:24:46.376Z,6.00
2018-02-21T11:27:14.650Z,6.04
2018-02-21T11:29:42.904Z,6.01
2018-02-21T11:32:13.256Z,6.25
2018-02-21T11:34:41.587Z,6.06
2018-02-21T11:37:09.840Z,6.21
2018-02-21T11:39:38.091Z,6.47
2018-02-21T11:42:06.371Z,6.45
2018-02-21T11:44:34.624Z,6.33
2018-02-21T11:47:02.940Z,6.88
2018-02-21T11:49:31.191Z,7.13
2018-02-21T11:51:59.489Z,7.14
2018-02-21T11:54:27.762Z,7.11
2018-02-21T11:56:56.019Z,6.39
2018-02-21T11:59:24.302Z,7.31
2018-02-21T12:01:52.557Z,7.70
2018-02-21T12:04:20.825Z,8.22
2018-02-21T12:06:49.098Z,7.86
2018-02-21T12:09:18.123Z,8.04
2018-02-21T12:11:46.380Z,8.21
2018-02-21T12:14:14.668Z,8.49
2018-02-21T12:16:42.945Z,7.92
2018-02-21T12:19:11.216Z,8.18
2018-02-21T12:21:39.479Z,8.09
2018-02-21T12:24:07.772Z,8.73
2018-02-21T12:26:36.047Z,8.42
2018-02-21T12:29:04.320Z,8.40
2018-02-21T12:31:32.583Z,8.95
2018-02-21T12:34:00.858Z,9.38
2018-02-21T12:36:29.137Z,9.67
2018-02-21T12:39:03.063Z,9.83
2018-02-21T12:41:36.956Z,9.66
2018-02-21T12:44:05.227Z,9.58
2018-02-21T12:46:33.480Z,9.93
2018-02-21T12:49:02.524Z,10.00
2018-02-21T12:51:30.796Z,10.13
2018-02-21T12:53:59.058Z,10.47
2018-02-21T12:56:27.352Z,10.44
2018-02-21T12:58:55.634Z,9.75
2018-02-21T13:01:23.899Z,10.25
2018-02-21T13:03:52.181Z,10.33
2018-02-21T13:06:20.452Z,9.35
2018-02-21T13:08:48.707Z,8.55
2018-02-21T13:11:16.992Z,9.23
2018-02-21T13:13:45.261Z,9.16
2018-02-21T13:16:13.540Z,9.68
2018-02-21T13:18:41.800Z,10.32
2018-02-21T13:21:10.889Z,10.43
2018-02-21T13:23:39.903Z,10.37
2018-02-21T13:26:08.152Z,9.63
2018-02-21T13:28:37.220Z,8.71
2018-02-21T13:31:05.471Z,8.61
2018-02-21T13:33:33.752Z,9.07
2018-02-21T13:36:02.011Z,8.97
2018-02-21T13:38:30.271Z,9.30
2018-02-21T13:40:58.564Z,8.10
2018-02-21T13:43:26.820Z,8.85
2018-02-21T13:45:55.072Z,7.50
2018-02-21T13:48:24.112Z,8.16
2018-02-21T13:50:52.369Z,8.86
2018-02-21T13:53:20.628Z,8.84
2018-02-21T13:55:49.671Z,9.94
2018-02-21T13:58:17.957Z,10.22
2018-02-21T14:00:46.235Z,10.24
2018-02-21T14:03:14.495Z,10.38
2018-02-21T14:05:42.824Z,10.43
2018-02-21T14:08:11.880Z,11.11
2018-02-21T14:10:40.163Z,11.28
2018-02-21T14:13:08.447Z,11.95
2018-02-21T14:15:36.784Z,11.47
2018-02-21T14:18:05.051Z,12.09
2018-02-21T14:20:33.328Z,12.06
2018-02-21T14:23:01.593Z,11.62
2018-02-21T14:25:29.863Z,12.40
2018-02-21T14:27:58.175Z,12.25
2018-02-21T14:30:26.436Z,12.23
2018-02-21T14:32:54.728Z,12.06
2018-02-21T14:35:23.053Z,11.72
2018-02-21T14:37:51.318Z,10.99
2018-02-21T14:40:19.576Z,10.99
2018-02-21T14:42:47.877Z,10.27
2018-02-21T14:45:16.901Z,8.80
2018-02-21T14:47:45.163Z,8.86
2018-02-21T14:50:13.436Z,8.98
2018-02-21T14:52:42.460Z,8.63
2018-02-21T14:55:10.735Z,8.16
2018-02-21T14:57:39.009Z,8.39
2018-02-21T15:00:07.260Z,8.00
2018-02-21T15:02:35.544Z,8.02
2018-02-21T15:05:03.791Z,8.11
2018-02-21T15:07:32.824Z,7.89
2018-02-21T15:10:01.088Z,7.82
2018-02-21T15:12:29.347Z,7.42
2018-02-21T15:14:58.377Z,7.60
2018-02-21T15:17:26.652Z,7.53
2018-02-21T15:19:54.918Z,7.49
2018-02-21T15:22:23.184Z,7.49
2018-02-21T15:24:51.455Z,7.05
2018-02-21T15:27:19.716Z,6.90
2018-02-21T15:29:48.734Z,7.29
2018-02-21T15:32:17.513Z,7.42
2018-02-21T15:34:45.772Z,7.49
2018-02-21T15:37:14.795Z,7.61
2018-02-21T15:39:43.071Z,7.83
2018-02-21T15:42:11.331Z,7.92
2018-02-21T15:44:39.596Z,7.44
2018-02-21T15:47:08.684Z,7.37
2018-02-21T15:49:36.917Z,6.96
2018-02-21T15:52:05.270Z,7.02
2018-02-21T15:54:33.540Z,6.23
2018-02-21T15:57:01.816Z,6.27
2018-02-21T15:59:30.115Z,6.20
2018-02-21T16:01:58.374Z,6.09
2018-02-21T16:04:26.676Z,6.15
2018-02-21T16:06:54.958Z,5.95
2018-02-21T16:09:23.231Z,5.79
2018-02-21T16:11:51.495Z,5.48
2018-02-21T16:14:19.777Z,5.26
2018-02-21T16:16:48.120Z,4.91
2018-02-21T16:19:16.387Z,4.73
2018-02-21T16:21:44.665Z,4.29
2018-02-21T16:24:12.952Z,4.23
2018-02-21T16:26:41.221Z,4.12
2018-02-21T16:29:09.503Z,4.23
2018-02-21T16:31:37.769Z,4.11
2018-02-21T16:34:06.068Z,3.88
2018-02-21T16:36:34.349Z,3.99
2018-02-21T16:39:02.620Z,3.98
2018-02-21T16:41:30.896Z,3.90
2018-02-21T16:43:59.205Z,3.84
2018-02-21T16:46:27.478Z,3.94
2018-02-21T16:48:55.744Z,3.65
2018-02-21T16:51:24.054Z,3.48
2018-02-21T16:53:58.439Z,3.44
2018-02-21T16:56:26.753Z,3.39
2018-02-21T16:58:55.793Z,3.46
2018-02-21T17:01:24.246Z,3.33
2018-02-21T17:03:52.582Z,3.33
2018-02-21T17:06:21.226Z,2.99
2018-02-21T17:08:49.632Z,3.07
2018-02-21T17:11:18.089Z,3.11
2018-02-21T17:13:46.565Z,3.02
2018-02-21T17:16:15.175Z,3.08
2018-02-21T17:18:43.581Z,2.99
2018-02-21T17:21:12.118Z,2.76
2018-02-21T17:23:40.500Z,2.97
2018-02-21T17:26:08.951Z,2.90
2018-02-21T17:28:37.365Z,2.77
2018-02-21T17:31:05.749Z,2.73
2018-02-21T17:33:34.103Z,2.71
2018-02-21T17:36:02.845Z,2.59
2018-02-21T17:38:31.246Z,2.49
2018-02-21T17:41:05.693Z,2.54
2018-02-21T17:43:34.690Z,2.37
2018-02-21T17:46:04.243Z,2.27
2018-02-21T17:48:33.673Z,2.36
2018-02-21T17:51:02.343Z,2.25
2018-02-21T17:53:31.900Z,2.10
2018-02-21T17:56:02.336Z,2.22
2018-02-21T17:58:32.930Z,2.19
2018-02-21T18:01:04.084Z,1.96
2018-02-21T18:03:33.884Z,2.08
2018-02-21T18:06:03.509Z,1.99
2018-02-21T18:08:34.081Z,1.90
2018-02-21T18:11:03.465Z,1.85
2018-02-21T18:13:32.833Z,1.88
2018-02-21T18:16:03.104Z,1.86
2018-02-21T18:18:32.340Z,1.84
2018-02-21T18:21:01.643Z,1.94
2018-02-21T18:23:31.794Z,1.99
2018-02-21T18:26:01.033Z,1.99
2018-02-21T18:28:30.328Z,1.98
2018-02-21T18:30:59.847Z,1.86
2018-02-21T18:33:29.920Z,2.04
2018-02-21T18:35:59.310Z,1.94
2018-02-21T18:38:28.713Z,1.96
2018-02-21T18:40:58.858Z,1.92
2018-02-21T18:43:28.179Z,1.92
2018-02-21T18:45:57.456Z,1.96
2018-02-21T18:48:26.857Z,2.00
2018-02-21T18:50:56.164Z,2.13
2018-02-21T18:53:29.051Z,2.07
2018-02-21T18:55:58.416Z,2.01
2018-02-21T18:58:28.462Z,2.12
2018-02-21T19:00:58.394Z,2.20
2018-02-21T19:03:27.683Z,2.37
2018-02-21T19:05:57.824Z,2.38
2018-02-21T19:08:28.033Z,2.37
2018-02-21T19:10:57.945Z,2.39
2018-02-21T19:13:28.073Z,2.38
2018-02-21T19:15:58.067Z,2.41
2018-02-21T19:18:28.861Z,2.58
2018-02-21T19:20:59.794Z,2.54
2018-02-21T19:23:30.393Z,2.60
2018-02-21T19:26:01.194Z,2.54
2018-02-21T19:28:31.084Z,2.57
2018-02-21T19:31:01.945Z,2.53
2018-02-21T19:33:31.748Z,2.64
2018-02-21T19:36:01.959Z,2.62
2018-02-21T19:38:32.693Z,2.48
2018-02-21T19:41:03.354Z,2.60
2018-02-21T19:43:33.122Z,2.46
2018-02-21T19:46:03.116Z,2.42
2018-02-21T19:48:33.132Z,2.36
2018-02-21T19:51:03.081Z,2.45
2018-02-21T19:53:32.358Z,2.53
2018-02-21T19:56:01.666Z,2.35
2018-02-21T19:58:31.845Z,2.46
2018-02-21T20:01:01.136Z,2.45
2018-02-21T20:03:31.062Z,2.27
2018-02-21T20:06:00.533Z,2.11
2018-02-21T20:08:29.906Z,2.07
2018-02-21T20:11:00.456Z,1.67
2018-02-21T20:13:30.538Z,1.70
2018-02-21T20:15:59.911Z,1.54
2018-02-21T20:18:29.844Z,1.55
2018-02-21T20:20:59.674Z,1.60
2018-02-21T20:23:29.543Z,1.51
2018-02-21T20:25:59.238Z,1.51
2018-02-21T20:28:29.346Z,1.56
2018-02-21T20:31:00.302Z,1.48
2018-02-21T20:33:29.632Z,1.42
2018-02-21T20:35:58.940Z,1.34
2018-02-21T20:38:29.171Z,1.40
2018-02-21T20:40:58.985Z,1.49
2018-02-21T20:43:29.073Z,1.45
2018-02-21T20:45:58.822Z,1.33
2018-02-21T20:48:29.772Z,1.18
2018-02-21T20:51:00.618Z,1.21
2018-02-21T20:53:30.382Z,1.23
2018-02-21T20:56:00.029Z,0.93
2018-02-21T20:58:30.777Z,1.09
2018-02-21T21:01:00.457Z,1.20
2018-02-21T21:03:31.332Z,1.19
2018-02-21T21:06:00.771Z,1.11
2018-02-21T21:08:30.930Z,0.99
2018-02-21T21:11:01.583Z,0.97
2018-02-21T21:13:31.615Z,1.05
2018-02-21T21:16:01.028Z,1.16
2018-02-21T21:18:30.898Z,1.24
2018-02-21T21:21:01.522Z,1.19
2018-02-21T21:23:31.444Z,1.20
2018-02-21T21:26:02.075Z,1.27
2018-02-21T21:28:32.797Z,1.20
2018-02-21T21:31:04.177Z,1.33
2018-02-21T21:33:34.028Z,1.35
2018-02-21T21:36:04.087Z,1.26
2018-02-21T21:38:34.208Z,1.19
2018-02-21T21:41:05.019Z,1.14
2018-02-21T21:43:35.123Z,0.98
2018-02-21T21:46:04.809Z,1.07
2018-02-21T21:48:34.817Z,1.04
2018-02-21T21:51:04.596Z,0.88
2018-02-21T21:53:35.335Z,0.91
2018-02-21T21:56:05.784Z,0.92
2018-02-21T21:58:34.794Z,0.86
2018-02-21T22:01:03.561Z,0.72
2018-02-21T22:03:32.127Z,0.77
2018-02-21T22:06:00.502Z,0.69
2018-02-21T22:08:28.864Z,0.60
2018-02-21T22:10:57.209Z,0.56
2018-02-21T22:13:26.328Z,0.41
2018-02-21T22:15:55.374Z,0.55
2018-02-21T22:18:23.639Z,0.29
2018-02-21T22:20:51.892Z,0.34
2018-02-21T22:23:20.221Z,0.22
2018-02-21T22:25:48.516Z,-0.01
2018-02-21T22:28:16.765Z,0.20
2018-02-21T22:30:45.036Z,0.24
2018-02-21T22:33:13.323Z,0.22
2018-02-21T22:35:41.547Z,0.32
2018-02-21T22:38:10.069Z,0.29
2018-02-21T22:40:38.374Z,0.28
2018-02-21T22:43:06.813Z,0.11
2018-02-21T22:45:35.176Z,0.04
2018-02-21T22:48:03.435Z,0.11
2018-02-21T22:50:31.725Z,0.02
2018-02-21T22:52:59.976Z,0.12
2018-02-21T22:55:29.059Z,0.06
2018-02-21T22:57:57.420Z,0.19
2018-02-21T23:00:25.700Z,0.23
2018-02-21T23:02:53.969Z,0.09
2018-02-21T23:05:22.242Z,0.21
2018-02-21T23:07:50.519Z,0.11
2018-02-21T23:10:18.813Z,0.18
2018-02-21T23:12:47.832Z,0.12
2018-02-21T23:15:16.144Z,0.05
2018-02-21T23:17:44.403Z,-0.04
2018-02-21T23:20:12.699Z,-0.07
2018-02-21T23:22:40.976Z,-0.03
2018-02-21T23:25:09.231Z,0.06
2018-02-21T23:27:37.514Z,0.01
2018-02-21T23:30:05.772Z,0.00
2018-02-21T23:32:34.036Z,-0.08
2018-02-21T23:35:02.313Z,-0.05
2018-02-21T23:37:30.572Z,-0.05
2018-02-21T23:39:59.620Z,-0.11
2018-02-21T23:42:27.919Z,-0.26
2018-02-21T23:44:56.192Z,-0.16
2018-02-21T23:47:24.462Z,-0.14
2018-02-21T23:49:52.740Z,-0.11
2018-02-21T23:52:21.009Z,-0.18
2018-02-21T23:54:49.292Z,-0.22
2018-02-21T23:57:17.588Z,-0.17
2018-02-21T23:59:45.860Z,-0.18
